Michelle 1 — 9HA2395 — position and weather

sailwx.info

Track history (hours):
 
Tides and Currents Weather Stations Pressure Air Temp Water Temp Dewpoint Dewpoint Depression Visibility Wind Speed Wind Dir Waves Ship Positions

Michelle 1

Last reported at 2017-Sep-21 14:48 UTC. Time now 2017-Sep-23 06:00 UTC.
Position N 31°27' E 031°46'.

Length 116 m; draft 4.1 m.

Type: Cargo ship. MMSI: 248527000.

Date/timePositionNaut miles runAvg speedWind from/ knotsBaromVisibWave heightAir tempDewpointWater temp
2017-Sep-21 14:48N 31°27' E 031°46'  
2017-Sep-15 04:26N 32°34' E 032°47'511.0
2017-Sep-15 03:58N 32°38' E 032°50'511.0
2017-Sep-15 03:29N 32°43' E 032°52'511.0
2017-Sep-15 03:00N 32°48' E 032°55'510.9
2017-Sep-15 02:30N 32°52' E 032°58'611.0
2017-Sep-15 01:59N 32°57' E 033°01'1110.9
2017-Sep-15 01:01N 33°07' E 033°07'011.2
2017-Sep-15 01:00N 33°07' E 033°07'511.0
2017-Sep-15 00:31N 33°12' E 033°10'611.1
2017-Sep-15 00:00N 33°17' E 033°13'5211.2
2017-Sep-14 19:23N 34°04' E 033°41'1311.0
2017-Sep-14 18:12N 34°15' E 033°49'310.9
2017-Sep-14 17:56N 34°17' E 033°50'610.9
2017-Sep-14 17:22N 34°23' E 033°54'1010.9
2017-Sep-14 16:29N 34°32' E 033°58'510.8
2017-Sep-14 16:01N 34°36' E 034°01'510.7
2017-Sep-14 15:31N 34°41' E 034°04'510.5
2017-Sep-14 15:00N 34°45' E 034°08'510.8
2017-Sep-14 14:30N 34°50' E 034°11'2710.6
2017-Sep-14 11:57N 35°14' E 034°26'510.9
2017-Sep-14 11:30N 35°19' E 034°29'2211.2
2017-Sep-14 09:35N 35°38' E 034°40'211.3
2017-Sep-14 09:25N 35°40' E 034°40'  
Track history (hours):
 
Tides and Currents Weather Stations Pressure Air Temp Water Temp Dewpoint Dewpoint Depression Visibility Wind Speed Wind Dir Waves Ship Positions

Michelle 1

Last reported at 2017-Sep-21 14:48 UTC. Time now 2017-Sep-23 06:00 UTC.
Position N 31°27' E 031°46'.

Length 116 m; draft 4.1 m.

Type: Cargo ship. MMSI: 248527000.

Date/timePositionNaut miles runAvg speedWind from/ knotsBaromVisibWave heightAir tempDewpointWater temp
2017-Sep-21 14:48N 31°27' E 031°46'  
2017-Sep-15 04:26N 32°34' E 032°47'511.0
2017-Sep-15 03:58N 32°38' E 032°50'511.0
2017-Sep-15 03:29N 32°43' E 032°52'511.0
2017-Sep-15 03:00N 32°48' E 032°55'510.9
2017-Sep-15 02:30N 32°52' E 032°58'611.0
2017-Sep-15 01:59N 32°57' E 033°01'1110.9
2017-Sep-15 01:01N 33°07' E 033°07'011.2
2017-Sep-15 01:00N 33°07' E 033°07'511.0
2017-Sep-15 00:31N 33°12' E 033°10'611.1
2017-Sep-15 00:00N 33°17' E 033°13'5211.2
2017-Sep-14 19:23N 34°04' E 033°41'1311.0
2017-Sep-14 18:12N 34°15' E 033°49'310.9
2017-Sep-14 17:56N 34°17' E 033°50'610.9
2017-Sep-14 17:22N 34°23' E 033°54'1010.9
2017-Sep-14 16:29N 34°32' E 033°58'510.8
2017-Sep-14 16:01N 34°36' E 034°01'510.7
2017-Sep-14 15:31N 34°41' E 034°04'510.5
2017-Sep-14 15:00N 34°45' E 034°08'510.8
2017-Sep-14 14:30N 34°50' E 034°11'2710.6
2017-Sep-14 11:57N 35°14' E 034°26'510.9
2017-Sep-14 11:30N 35°19' E 034°29'2211.2
2017-Sep-14 09:35N 35°38' E 034°40'211.3
2017-Sep-14 09:25N 35°40' E 034°40'  

Dump ship's entire track history